Ansley, Nebraska
Current Conditions -  °F | °C
As of 11:53 AM on Sunday 21 Dec 2014 (Local Time) from KBBW Reporting Station
Clear Clear  
Wind Chill:   Ceiling: Unl
Heat Index:   Visibility: 10mi
Dew Point:   Wind: 9mph
Humidity: 73%   Direction: 180°S
Pressure: 29.63"   Gusts: NA
Location:  41.29°N, 99.38°W
Report Text: KBBW 211753Z AUTO 18008KT 10SM CLR 06/01 A2963 RMK AO2 SLP052 T00560011 10056 21039 58023
Loading
Personal Weather Stations






























Interactive Weather Map New forecast layout! Learn more

10-Day Weather Forecast

Advertisements
Track Severe Weather on mobile